Tiempo atmosférico en la estación meteorológica de Velilla del Río Carrión, Camporredondo de Alba, Palencia (1575 m.)



Fecha
DESCASC
Temp. máxima en grados centígrados (hora)
DESCASC
Temp. mínima en grados centígrados (hora)
DESCASC
Temp. media en grados centígrados
DESCASC
Racha de viento máxima en m/sg (hora)
DESCASC
Velocidad máxima media en intervalos de 10 minutos(hora)
DESCASC
Precipitaciones diarias en mm
DESCASC
Precipitaciones de 00:00 a 06:00 en mm
DESCASC
Precipitaciones de 06:00 a 12:00 en mm
DESCASC
Precipitaciones de 12:00 a 18:00 en mm
DESCASC
Precipitaciones de 18:00 a 24:00 en mm
DESCASC
29-03-2020 11.1 (12:10) -1.3 (23:50) 4.9 13.33 (23:50) 10 (23:40) 0 0 0 0 0
28-03-2020 14.2 (15:40) -1.1 (06:20) 6.5 7.5 (17:20) 4.72 (17:20) 0 0 0 0 0
27-03-2020 8.9 (16:40) -5.5 (06:50) 1.7 11.39 (12:00) 8.89 (08:50) 0 0 0 0 0
26-03-2020 11.2 (14:20) -3 (-00:0) 4.1 10.83 (01:50) 6.67 (02:10) 0 0 0 0 0
25-03-2020 13.2 (11:30) 1.9 (00:00) 7.5 10.56 (14:30) 6.67 (14:30) 0 0 0 0 0
24-03-2020 12.6 (16:00) 2.3 (00:00) 7.5 10.56 (12:30) 5.28 (02:00) 0 0 0 0 0
23-03-2020 -- (--) -- (--) -- -- (--) -- (--) -- 0 0 -- 0
22-03-2020 11.8 (11:40) 1.9 (06:50) 6.9 11.94 (16:00) 8.06 (15:00) 0 0 0 0 0
21-03-2020 12.4 (14:20) 3.1 (00:00) 7.7 9.44 (14:10) 5 (14:10) 0 0 0 0 0
20-03-2020 10.2 (16:40) 2.5 (00:00) 6.3 9.72 (22:50) 6.39 (22:30) 0 0 0 0 0
19-03-2020 15.4 (14:30) 5.2 (00:00) 10.3 8.06 (15:10) 4.72 (15:10) 0 0 0 0 0
18-03-2020 15.5 (15:30) 2.9 (00:00) 9.2 7.22 (17:00) 4.17 (17:00) 0 0 0 0 0
17-03-2020 10.4 (10:50) 1.4 (00:00) 5.9 16.67 (00:10) 11.67 (01:50) 0 0 0 0 0
16-03-2020 4.6 (16:40) -2.5 (-00:0) 1 23.33 (07:20) 13.61 (07:20) 0 0 0 0 0
15-03-2020 13.1 (14:20) -0.7 (-00:0) 6.2 16.67 (17:40) 10.28 (23:50) 0 0 0 0 0
14-03-2020 15.8 (15:00) 2.5 (00:00) 9.2 7.78 (18:10) 4.44 (17:30) 0 0 0 0 0
13-03-2020 13 (17:40) 0.2 (07:30) 6.6 8.06 (09:40) 6.11 (09:10) 0 0 0 0 0
12-03-2020 17.7 (14:50) 2.8 (00:00) 10.3 8.61 (02:50) 6.11 (02:30) 0 0 0 0 0
11-03-2020 -- (--) -- (--) -- -- (--) -- (--) -- 0 0 -- 0
10-03-2020 17.4 (15:10) 4.3 (00:00) 10.8 10 (17:30) 6.11 (17:30) 0 0 0 0 0
09-03-2020 8.4 (16:50) -1.6 (-00:0) 3.4 11.94 (01:00) 7.5 (13:10) 0 0 0 0 0
08-03-2020 10.8 (14:20) 1.6 (00:00) 6.2 11.11 (18:10) 7.5 (18:10) 0 0 0 0 0
07-03-2020 10 (15:30) -0.7 (-00:0) 4.7 13.06 (00:30) 6.39 (00:20) 0 0 0 0 0
06-03-2020 2.2 (15:00) -3.6 (-00:0) -0.7 18.61 (18:40) 9.17 (05:20) 0 0 0 0 0
05-03-2020 5.8 (02:20) -2.2 (-00:0) 1.8 27.5 (05:10) 16.11 (05:40) 0.2 0.2 0 0 0
04-03-2020 9.3 (16:40) 3.2 (03:30) 6.3 17.22 (23:59) 11.67 (22:00) 1.2 0.2 0 1 0
03-03-2020 10.1 (15:30) -3.4 (-00:0) 3.4 21.39 (14:30) 13.33 (14:30) 7.4 0 6 1.4 0
02-03-2020 -- (--) -- (--) -- -- (--) -- (--) -- 12 -- 1.6 0
01-03-2020 7.3 (14:10) -0.7 (-00:0) 3.3 22.5 (15:00) 14.72 (23:30) 13 0 4.2 0 8.8
29-02-2020 6.7 (13:30) 0.3 (00:00) 3.5 25.28 (11:20) 17.22 (11:40) 4 0 3.8 0.2 0

Gráficas

Temp. máximas Temp. mínimas Temp. medias Precipitaciones Rachas de viento máximas Velocidades máximas media en intervalos de 10 minutos

Datos horarios

Fecha y hora oficial Temperatura (ºC) Velocidad del viento (km/h) Dirección del viento Racha (km/h) Dirección de racha Precipitación (mm) Presión (hPa) Tendencia (hPa) Humedad (%)
2020-03-29 23:00:00 -0.4 32 Este 43 Este 0 -- -- 82
2020-03-29 22:00:00 -0.3 28 Este 39 Nordeste 0 -- -- 89
2020-03-29 21:00:00 0.8 17 Este 37 Este 0 -- -- 82
2020-03-29 20:00:00 2.1 13 Este 24 Nordeste 0 -- -- 74
2020-03-29 19:00:00 5 5 Este 25 Este 0 -- -- 62
2020-03-29 18:00:00 6.3 8 Sudeste 25 Sudeste 0 -- -- 58
2020-03-29 17:00:00 7.4 4 Sur 20 Sudoeste 0 -- -- 58
2020-03-29 16:00:00 8.9 11 Sudoeste 26 Sudoeste 0 -- -- 50
2020-03-29 15:00:00 9.1 5 Oeste 16 Sur 0 -- -- 52
2020-03-29 14:00:00 9.5 5 Sur 21 Sur 0 -- -- 51
2020-03-29 13:00:00 9.4 2 Sudoeste 12 Este 0 -- -- 52
2020-03-29 12:00:00 10.5 4 Sudeste 10 Este 0 -- -- 48
2020-03-29 11:00:00 7.6 4 Sudoeste 12 Noroeste 0 -- -- 57
2020-03-29 10:00:00 5.2 8 Noroeste 13 Noroeste 0 -- -- 62
2020-03-29 09:00:00 2.5 6 Noroeste 9 Noroeste 0 -- -- 70
2020-03-29 08:00:00 2.9 2 Oeste 6 Oeste 0 -- -- 68
2020-03-29 07:00:00 3 6 Oeste 8 Noroeste 0 -- -- 66
2020-03-29 06:00:00 2 4 Noroeste 8 Noroeste 0 -- -- 68
2020-03-29 05:00:00 2.8 3 Oeste 12 Noroeste 0 -- -- 67
2020-03-29 03:00:00 2.6 4 Oeste 6 Oeste 0 -- -- 69
2020-03-29 01:00:00 3 0 Calma 2 Sudoeste 0 -- -- 71
2020-03-29 00:00:00 3.2 0 Calma 3 Sudoeste 0 -- -- 70
2020-03-28 23:00:00 3.9 0 Calma 2 Este 0 -- -- 67
2020-03-28 22:00:00 3.6 0 Calma 5 Sudoeste 0 -- -- 69
2020-03-28 21:00:00 5.1 4 Sudoeste 9 Este 0 -- -- 60
2020-03-28 20:00:00 6.1 4 Sudeste 18 Sudoeste 0 -- -- 54
2020-03-28 19:00:00 9.1 11 Sudoeste 24 Sudoeste 0 -- -- 40
2020-03-28 18:00:00 12.4 12 Oeste 27 Sudoeste 0 -- -- 33
2020-03-28 17:00:00 13.5 10 Sudoeste 26 Oeste 0 -- -- 33
2020-03-28 16:00:00 13.6 14 Sudoeste 24 Sur 0 -- -- 30
2020-03-28 15:00:00 13.1 6 Sur 22 Sudeste 0 -- -- 33
2020-03-28 14:00:00 12.2 6 Sudeste 15 Nordeste 0 -- -- 33
2020-03-28 13:00:00 11 5 Sudeste 17 Este 0 -- -- 33
2020-03-28 12:00:00 10.2 6 Sudeste 17 Este 0 -- -- 33
2020-03-28 11:00:00 9.1 2 Sudoeste 10 Oeste 0 -- -- 39
2020-03-28 10:00:00 7.1 3 Oeste 8 Oeste 0 -- -- 40
2020-03-28 09:00:00 6.4 0 Calma 3 Noroeste 0 -- -- 43
2020-03-28 08:00:00 0.6 2 Noroeste 5 Noroeste 0 -- -- 53
2020-03-28 07:00:00 -0.4 3 Noroeste 10 Norte 0 -- -- 56
2020-03-28 06:00:00 -0.7 5 Norte 7 Norte 0 -- -- 60
2020-03-28 05:00:00 0.1 2 Oeste 4 Oeste 0 -- -- 66
2020-03-28 04:00:00 0 2 Oeste 6 Noroeste 0 -- -- 65
2020-03-28 03:00:00 -0.2 0 Calma 2 Norte 0 -- -- 65
2020-03-28 02:00:00 -0.1 0 Calma 11 Este 0 -- -- 69
2020-03-28 01:00:00 -0.3 8 Este 10 Este 0 -- -- 69
2020-03-28 00:00:00 0.7 8 Este 17 Este 0 -- -- 71
2020-03-27 23:00:00 0.6 13 Este 19 Sudeste 0 -- -- 67
2020-03-27 22:00:00 1.1 12 Este 18 Este 0 -- -- 62
2020-03-27 21:00:00 1.7 8 Este 12 Sur 0 -- -- 57
2020-03-27 20:00:00 2.8 6 Sudeste 12 Sudeste 0 -- -- 51
2020-03-27 19:00:00 5.1 3 Sur 15 Este 0 -- -- 37
2020-03-27 18:00:00 8.1 6 Sur 22 Sudoeste 0 -- -- 32
2020-03-27 17:00:00 8.9 5 Sur 23 Este 0 -- -- 33
2020-03-27 16:00:00 7.1 4 Sur 33 Este 0 -- -- 33
2020-03-27 15:00:00 5.7 10 Sudeste 33 Este 0 -- -- 33
2020-03-27 14:00:00 4.8 12 Sudeste 34 Este 0 -- -- 41
2020-03-27 13:00:00 4.6 12 Sudeste 34 Este 0 -- -- 36
2020-03-27 12:00:00 4.2 19 Sudeste 41 Este 0 -- -- 42
2020-03-27 11:00:00 3.3 14 Sudeste 37 Este 0 -- -- 46
2020-03-27 10:00:00 1.2 18 Sudeste 39 Este 0 -- -- 53
2020-03-27 09:00:00 -1.1 26 Sudeste 39 Este 0 -- -- 60
2020-03-27 08:00:00 -4.3 14 Sudeste 32 Este 0 -- -- 71
2020-03-27 07:00:00 -5.5 11 Sudeste 24 Este 0 -- -- 73
2020-03-27 06:00:00 -5.1 5 Sudeste 17 Sur 0 -- -- 73
2020-03-27 05:00:00 -4.9 5 Sur 37 Sudeste 0 -- -- 71
2020-03-27 04:00:00 -4.8 19 Este 27 Este 0 -- -- 73
2020-03-27 03:00:00 -4.2 4 Sudeste 13 Este 0 -- -- 69
2020-03-27 02:00:00 -3.7 12 Nordeste 22 Este 0 -- -- 68
2020-03-27 01:00:00 -3.3 17 Este 24 Este 0 -- -- 73
2020-03-27 00:00:00 -2.9 9 Sudeste 21 Este 0 -- -- 79
2020-03-26 23:00:00 -2.8 12 Este 22 Nordeste 0 -- -- 78
2020-03-26 22:00:00 -1.7 5 Este 14 Noroeste 0 -- -- 70
2020-03-26 21:00:00 -0.8 10 Nordeste 18 Nordeste 0 -- -- 68
2020-03-26 20:00:00 -0.3 9 Sudoeste 18 Sudoeste 0 -- -- 73
2020-03-26 19:00:00 2.3 8 Noroeste 31 Oeste 0 -- -- 64
2020-03-26 18:00:00 6.8 16 Noroeste 34 Oeste 0 -- -- 48
2020-03-26 17:00:00 9.8 15 Oeste 31 Oeste 0 -- -- 40
2020-03-26 16:00:00 8.7 14 Este 24 Este 0 -- -- 40
2020-03-26 15:00:00 10.1 6 Sur 23 Oeste 0 -- -- 39
2020-03-26 14:00:00 9.9 13 Oeste 28 Oeste 0 -- -- 35
2020-03-26 13:00:00 9.5 11 Oeste 32 Sudoeste 0 -- -- 34
2020-03-26 12:00:00 8.9 4 Sudoeste 14 Sur 0 -- -- 28
2020-03-26 11:00:00 7.5 5 Sudoeste 13 Este 0 -- -- 24
2020-03-26 10:00:00 5.4 3 Noroeste 13 Oeste 0 -- -- 17
2020-03-26 09:00:00 2.6 5 Oeste 18 Oeste 0 -- -- 17
2020-03-26 08:00:00 -0.6 14 Oeste 23 Oeste 0 -- -- 15
2020-03-26 07:00:00 -0.6 16 Oeste 22 Noroeste 0 -- -- 15
2020-03-26 06:00:00 0.6 12 Oeste 19 Noroeste 0 -- -- 11
2020-03-26 05:00:00 1.9 13 Norte 27 Norte 0 -- -- 9
2020-03-26 04:00:00 3.5 13 Noroeste 31 Norte 0 -- -- 6
2020-03-26 03:00:00 3 14 Noroeste 37 Norte 0 -- -- 8
2020-03-26 02:00:00 3.4 22 Norte 39 Norte 0 -- -- 9
2020-03-26 01:00:00 2.8 11 Noroeste 33 Norte 0 -- -- 15
2020-03-26 00:00:00 3.3 17 Norte 30 Norte 0 -- -- 16
2020-03-25 23:00:00 3.2 18 Noroeste 34 Noroeste 0 -- -- 23
2020-03-25 22:00:00 3.8 21 Noroeste 34 Noroeste 0 -- -- 26
2020-03-25 21:00:00 3.2 16 Oeste 32 Noroeste 0 -- -- 38
2020-03-25 20:00:00 4.9 15 Noroeste 26 Oeste 0 -- -- 35
2020-03-25 19:00:00 8.1 13 Noroeste 28 Norte 0 -- -- 27
2020-03-25 18:00:00 10.8 13 Norte 27 Norte 0 -- -- 24
2020-03-25 17:00:00 12.4 13 Norte 30 Norte 0 -- -- 20
2020-03-25 16:00:00 12.5 12 Nordeste 32 Este 0 -- -- 22
2020-03-25 15:00:00 11.2 19 Este 38 Este 0 -- -- 20
2020-03-25 14:00:00 11 17 Nordeste 31 Norte 0 -- -- 18
2020-03-25 13:00:00 11.7 10 Norte 27 Este 0 -- -- 20
2020-03-25 12:00:00 10.3 15 Este 26 Este 0 -- -- 18
2020-03-25 11:00:00 11.5 3 Sudoeste 10 Oeste 0 -- -- 20
2020-03-25 10:00:00 10.3 2 Nordeste 9 Oeste 0 -- -- 23
2020-03-25 09:00:00 8.9 0 Calma 14 Noroeste 0 -- -- 13
2020-03-25 08:00:00 2.8 8 Noroeste 14 Noroeste 0 -- -- 76
2020-03-25 07:00:00 2.6 13 Noroeste 19 Noroeste 0 -- -- 92
2020-03-25 06:00:00 2.2 14 Noroeste 17 Noroeste 0 -- -- 96
2020-03-25 05:00:00 2 10 Noroeste 13 Noroeste 0 -- -- 92
2020-03-25 04:00:00 2.4 2 Oeste 5 Noroeste 0 -- -- 93
2020-03-25 03:00:00 2.8 5 Oeste 9 Oeste 0 -- -- 92
2020-03-25 02:00:00 3.3 5 Oeste 15 Noroeste 0 -- -- 91
2020-03-25 01:00:00 4 9 Noroeste 12 Oeste 0 -- -- 87
2020-03-25 00:00:00 3.9 0 Calma 3 Sudoeste 0 -- -- 89
2020-03-24 23:00:00 4.5 0 Calma 4 Este 0 -- -- 87
2020-03-24 22:00:00 4.8 0 Calma 11 Este 0 -- -- 85
2020-03-24 21:00:00 5.1 4 Sudeste 14 Este 0 -- -- 83
2020-03-24 20:00:00 5.9 3 Sur 15 Sur 0 -- -- 74
2020-03-24 19:00:00 7.5 3 Sur 24 Sur 0 -- -- 64
2020-03-24 18:00:00 10.5 9 Sudeste 26 Este 0 -- -- 53
2020-03-24 17:00:00 12 8 Sudeste 26 Este 0 -- -- 52
2020-03-24 16:00:00 12.6 7 Sudeste 26 Sudeste 0 -- -- 49
2020-03-24 15:00:00 12.3 8 Sudeste 26 Sur 0 -- -- 49
2020-03-24 14:00:00 11.4 9 Sudeste 35 Este 0 -- -- 52
2020-03-24 13:00:00 9.7 14 Sudeste 38 Este 0 -- -- 58
2020-03-24 12:00:00 9.3 15 Sudeste 35 Sudeste 0 -- -- 56
2020-03-24 11:00:00 9.2 12 Sudeste 28 Este 0 -- -- 63
2020-03-24 10:00:00 7.1 11 Este 20 Este 0 -- -- 75
2020-03-24 09:00:00 4.9 10 Este 15 Este 0 -- -- 82
2020-03-24 08:00:00 3.2 8 Este 14 Este 0 -- -- 95
2020-03-24 07:00:00 2.9 5 Sudeste 16 Sur 0 -- -- 95
2020-03-24 06:00:00 2.6 2 Este 10 Este 0 -- -- 98
2020-03-24 05:00:00 2.3 9 Este 17 Este 0 -- -- 98
2020-03-24 04:00:00 2.7 6 Este 14 Este 0 -- -- 98
2020-03-24 03:00:00 2.9 12 Este 23 Este 0 -- -- 98
2020-03-24 02:00:00 3 19 Este 24 Sudeste 0 -- -- 97
2020-03-24 01:00:00 3.3 9 Sudeste 27 Sudeste 0 -- -- 95
2020-03-24 00:00:00 3.6 10 Sudeste 26 Este 0 -- -- 96
2020-03-23 23:00:00 3.8 9 Sudeste 26 Este 0 -- -- 94
2020-03-23 22:00:00 3.9 10 Sudeste 27 Este 0 -- -- 94
2020-03-23 21:00:00 4.7 8 Sudeste 23 Sur 0 -- -- 82
2020-03-23 20:00:00 5 7 Sudeste 21 Sudeste 0 -- -- 80
2020-03-23 19:00:00 7 5 Sur 20 Sur 0 -- -- 68
2020-03-23 18:00:00 7.7 6 Sur 21 Sudeste 0 -- -- 63
2020-03-23 17:00:00 8.2 6 Sudeste 23 Sur 0 -- -- 61
2020-03-23 16:00:00 9.5 8 Sur 26 Este 0 -- -- 60
2020-03-23 15:00:00 8.4 9 Sudeste 25 Este 0 -- -- 61
2020-03-23 14:00:00 -- -- -- -- -- -- -- -- --
2020-03-23 13:00:00 7.8 17 Este 30 Sudeste 0 -- -- 65
2020-03-23 12:00:00 7.1 11 Sudeste 24 Este 0 -- -- 59
2020-03-23 11:00:00 5.7 15 Este 27 Este 0 -- -- 72
2020-03-23 10:00:00 4.8 18 Este 26 Este 0 -- -- 79
2020-03-23 09:00:00 3 11 Este 15 Este 0 -- -- 74
2020-03-23 08:00:00 1.1 10 Este 14 Este 0 -- -- 77
2020-03-23 07:00:00 0.7 13 Este 18 Este 0 -- -- 80
2020-03-23 06:00:00 -0.3 13 Este 17 Este 0 -- -- 77
2020-03-23 05:00:00 2.1 3 Sur 5 Sur 0 -- -- 70
2020-03-23 04:00:00 2.4 3 Este 5 Este 0 -- -- 69
2020-03-23 03:00:00 1.6 4 Este 9 Este 0 -- -- 74
2020-03-23 02:00:00 2.1 7 Este 14 Este -- -- -- 72
2020-03-23 01:00:00 2.3 13 Este 18 Este 0 -- -- 71
2020-03-23 00:00:00 1.9 13 Este 19 Este 0 -- -- 76
2020-03-22 23:00:00 3.1 13 Sudeste 22 Este 0 -- -- 70
2020-03-22 22:00:00 2.9 9 Sudeste 22 Este 0 -- -- 76
2020-03-22 21:00:00 3.1 11 Este 25 Este 0 -- -- 76
2020-03-22 20:00:00 4.1 13 Este 24 Este 0 -- -- 67
2020-03-22 19:00:00 6 21 Este 35 Este 0 -- -- 50
2020-03-22 18:00:00 7.5 26 Este 42 Este 0 -- -- 46
2020-03-22 17:00:00 9.7 21 Este 42 Este 0 -- -- 51
2020-03-22 16:00:00 10.2 28 Este 43 Este 0 -- -- 44
2020-03-22 15:00:00 10.9 29 Este 42 Este 0 -- -- 41
2020-03-22 14:00:00 10 19 Este 30 Sudeste 0 -- -- 48
2020-03-22 13:00:00 8.8 17 Este 36 Nordeste 0 -- -- 58
2020-03-22 12:00:00 11.2 11 Sudeste 32 Este 0 -- -- 51
2020-03-22 11:00:00 9.9 15 Este 31 Este 0 -- -- 54
2020-03-22 10:00:00 8.6 11 Sudeste 22 Este 0 -- -- 62
2020-03-22 09:00:00 5.4 12 Este 21 Este 0 -- -- 69
2020-03-22 08:00:00 3.3 11 Este 18 Este 0 -- -- 84
2020-03-22 07:00:00 1.9 12 Este 18 Sudeste 0 -- -- 97
2020-03-22 06:00:00 2.7 0 Calma 6 Oeste 0 -- -- 99
2020-03-22 05:00:00 2.8 0 Calma 3 Sudoeste 0 -- -- 98
2020-03-22 04:00:00 3 0 Calma 9 Este 0 -- -- 97
2020-03-22 03:00:00 3.2 9 Nordeste 14 Nordeste 0 -- -- 97
2020-03-22 02:00:00 3.4 4 Este 8 Sur 0 -- -- 94
2020-03-22 01:00:00 4.3 6 Sur 9 Sur 0 -- -- 92
2020-03-22 00:00:00 4.4 3 Sur 5 Sur 0 -- -- 90
2020-03-21 23:00:00 4.7 5 Este 9 Este 0 -- -- 88
2020-03-21 22:00:00 5.1 3 Sudeste 11 Sudeste 0 -- -- 85
2020-03-21 21:00:00 5.2 6 Este 16 Sur 0 -- -- 84
2020-03-21 20:00:00 5.5 9 Sur 14 Sur 0 -- -- 83
2020-03-21 19:00:00 6.7 8 Sur 20 Sudoeste 0 -- -- 76
2020-03-21 18:00:00 9.2 15 Sudoeste 27 Sur 0 -- -- 68
2020-03-21 17:00:00 10.2 16 Sudoeste 29 Sur 0 -- -- 64
2020-03-21 16:00:00 11.6 14 Sudoeste 28 Sudoeste 0 -- -- 58
2020-03-21 15:00:00 11.1 16 Sudoeste 34 Sudoeste 0 -- -- 59
2020-03-21 14:00:00 11.6 18 Sudoeste 31 Sudoeste 0 -- -- 59
2020-03-21 13:00:00 10.2 7 Este 24 Este 0 -- -- 70
2020-03-21 12:00:00 7.2 11 Este 23 Este 0 -- -- 76
2020-03-21 11:00:00 5.4 11 Este 19 Este 0 -- -- 86
2020-03-21 10:00:00 4.4 4 Sudeste 15 Este 0 -- -- 96
2020-03-21 09:00:00 3.4 6 Sudeste 13 Sudeste 0 -- -- 98
2020-03-21 08:00:00 3.1 6 Sudeste 15 Este 0 -- -- 98
2020-03-21 07:00:00 3.2 5 Sudeste 24 Sur 0 -- -- 98
2020-03-21 06:00:00 3.4 8 Sur 26 Sur 0 -- -- 98
2020-03-21 05:00:00 3.5 9 Sur 20 Sudeste 0 -- -- 97
2020-03-21 04:00:00 3.9 5 Sudeste 12 Sudeste 0 -- -- 97
2020-03-21 03:00:00 3.8 11 Sudeste 21 Este 0 -- -- 98
2020-03-21 02:00:00 3.8 10 Este 13 Este 0 -- -- 97
2020-03-21 01:00:00 4.4 5 Sur 20 Sur 0 -- -- 96
2020-03-21 00:00:00 4.1 7 Sudeste 24 Sur 0 -- -- 98
2020-03-20 23:00:00 4.2 18 Sudoeste 35 Sudoeste 0 -- -- 97
2020-03-20 22:00:00 5 19 Sur 32 Sur 0 -- -- 95
2020-03-20 21:00:00 5.6 5 Sudeste 11 Sur 0 -- -- 87
2020-03-20 20:00:00 5.9 6 Sudeste 11 Este 0 -- -- 85
2020-03-20 19:00:00 6.9 3 Sur 7 Sudoeste 0 -- -- 80
2020-03-20 18:00:00 6.8 3 Oeste 22 Sudoeste 0 -- -- 79
2020-03-20 17:00:00 8.1 14 Oeste 29 Oeste 0 -- -- 72
2020-03-20 16:00:00 9.6 10 Sudoeste 19 Sudoeste 0 -- -- 70
2020-03-20 15:00:00 7.5 7 Oeste 17 Sudoeste 0 -- -- 78
2020-03-20 14:00:00 6 7 Este 15 Este 0 -- -- 84
2020-03-20 13:00:00 4.9 9 Este 14 Este 0 -- -- 93
2020-03-20 12:00:00 4.4 3 Sur 12 Sudeste 0 -- -- 93
2020-03-20 11:00:00 4.2 3 Sur 11 Sur 0 -- -- 94
2020-03-20 10:00:00 4.1 8 Sur 15 Sudeste 0 -- -- 94
2020-03-20 09:00:00 3.1 6 Este 9 Este 0 -- -- 95
2020-03-20 08:00:00 3.2 2 Nordeste 6 Sudoeste 0 -- -- 95
2020-03-20 07:00:00 3 3 Sur 14 Sudoeste 0 -- -- 95
2020-03-20 06:00:00 3.1 3 Este 22 Sur 0 -- -- 95
2020-03-20 05:00:00 2.6 10 Este 14 Sudeste 0 -- -- 91
2020-03-20 04:00:00 3.7 6 Sudeste 19 Sur 0 -- -- 88
2020-03-20 03:00:00 4.4 8 Sudeste 17 Sur 0 -- -- 82
2020-03-20 02:00:00 4.8 8 Sur 17 Sur 0 -- -- 79
2020-03-20 01:00:00 5.5 13 Sur 19 Sur 0 -- -- 76
2020-03-20 00:00:00 5.2 6 Este 8 Este 0 -- -- 93
2020-03-19 23:00:00 5.9 4 Sur 13 Sur 0 -- -- 81
2020-03-19 22:00:00 6.5 9 Sur 14 Sur 0 -- -- 70
2020-03-19 21:00:00 7.6 5 Sudeste 14 Sur 0 -- -- 52
2020-03-19 20:00:00 7.6 10 Sur 17 Sur 0 -- -- 47
2020-03-19 19:00:00 8.5 11 Sur 15 Sur 0 -- -- 46
2020-03-19 18:00:00 9.2 9 Sur 14 Sur 0 -- -- 49
2020-03-19 17:00:00 10.1 7 Sur 18 Sudoeste 0 -- -- 48
2020-03-19 16:00:00 10.7 12 Sudoeste 29 Sudoeste 0 -- -- 46
2020-03-19 15:00:00 12.8 16 Sudoeste 28 Sudoeste 0 -- -- 43
2020-03-19 14:00:00 13.3 10 Sudoeste 25 Sudoeste 0 -- -- 40
2020-03-19 13:00:00 14.9 12 Sudoeste 21 Sudoeste 0 -- -- 39
2020-03-19 12:00:00 13.9 6 Sudoeste 13 Sur 0 -- -- 46
2020-03-19 11:00:00 11.8 4 Sudeste 9 Sudeste 0 -- -- 55
2020-03-19 10:00:00 9.5 3 Sudeste 5 Sudeste 0 -- -- 67
2020-03-19 09:00:00 7.6 2 Sudeste 4 Este 0 -- -- 76
2020-03-19 08:00:00 6.1 2 Este 4 Este 0 -- -- 82
2020-03-19 07:00:00 6 0 Calma 7 Sudoeste 0 -- -- 81
2020-03-19 06:00:00 6.2 0 Calma 5 Sudoeste 0 -- -- 80
2020-03-19 05:00:00 6.8 3 Sur 18 Sur 0 -- -- 77
2020-03-19 04:00:00 6.8 3 Sudoeste 3 Sudoeste 0 -- -- 81
2020-03-19 03:00:00 7.2 0 Calma 4 Sudoeste 0 -- -- 80
2020-03-19 02:00:00 7.5 2 Oeste 9 Sudoeste 0 -- -- 78
2020-03-19 01:00:00 7.9 0 Calma 10 Sudoeste 0 -- -- 78
2020-03-19 00:00:00 8 5 Sudoeste 8 Sudoeste 0 -- -- 76
2020-03-18 23:00:00 8.5 0 Calma 4 Nordeste 0 -- -- 76
2020-03-18 22:00:00 9.3 0 Calma 7 Sudeste 0 -- -- 67
2020-03-18 21:00:00 9.2 3 Sudeste 15 Sudoeste 0 -- -- 74
2020-03-18 20:00:00 9.5 9 Sudoeste 17 Oeste 0 -- -- 70
2020-03-18 19:00:00 10.7 13 Oeste 19 Sudoeste 0 -- -- 63
2020-03-18 18:00:00 13.4 10 Sudoeste 22 Sudoeste 0 -- -- 55
2020-03-18 17:00:00 13.8 15 Sudoeste 26 Sudoeste 0 -- -- 53
2020-03-18 16:00:00 14.5 9 Oeste 26 Oeste 0 -- -- 51
2020-03-18 15:00:00 14.2 13 Oeste 24 Oeste 0 -- -- 51
2020-03-18 14:00:00 14.3 4 Noroeste 16 Sudoeste 0 -- -- 53
2020-03-18 13:00:00 14.4 3 Este 12 Oeste 0 -- -- 52
2020-03-18 12:00:00 11.8 4 Sudoeste 11 Sur 0 -- -- 63
2020-03-18 11:00:00 10.2 2 Sudeste 11 Sur 0 -- -- 66
2020-03-18 10:00:00 8.1 3 Nordeste 6 Sudeste 0 -- -- 71
2020-03-18 09:00:00 6.9 3 Sudeste 8 Este 0 -- -- 79
2020-03-18 08:00:00 3.8 4 Este 10 Este 0 -- -- 95
2020-03-18 07:00:00 3 6 Sudeste 10 Sudeste 0 -- -- 99
2020-03-18 06:00:00 2.9 3 Sudeste 8 Este 0 -- -- 98
2020-03-18 05:00:00 3.3 3 Sudeste 6 Este 0 -- -- 97
2020-03-18 04:00:00 4.1 0 Calma 7 Este 0 -- -- 96
2020-03-18 03:00:00 4.3 3 Sudeste 11 Oeste 0 -- -- 96
2020-03-18 02:00:00 4.3 4 Sudoeste 8 Sur 0 -- -- 95
2020-03-18 01:00:00 4.6 4 Sudoeste 8 Sudeste 0 -- -- 95
2020-03-18 00:00:00 5.2 5 Este 16 Sur 0 -- -- 94
2020-03-17 23:00:00 5.7 5 Sur 15 Sudeste 0 -- -- 91
2020-03-17 22:00:00 5.6 6 Este 20 Sur 0 -- -- 90
2020-03-17 21:00:00 5.5 4 Este 17 Sur 0 -- -- 90
2020-03-17 20:00:00 5.5 8 Este 14 Este 0 -- -- 90
2020-03-17 19:00:00 5.1 5 Este 14 Este 0 -- -- 92
2020-03-17 18:00:00 5.9 9 Este 18 Este 0 -- -- 88
2020-03-17 17:00:00 4.9 17 Este 33 Este 0 -- -- 93
2020-03-17 16:00:00 6 24 Este 32 Este 0 -- -- 87
2020-03-17 15:00:00 6.8 21 Este 30 Este 0 -- -- 84
2020-03-17 14:00:00 6.2 13 Sudeste 31 Este 0 -- -- 84
2020-03-17 13:00:00 6.8 14 Sudeste 32 Sudeste 0 -- -- 80
2020-03-17 12:00:00 8.1 9 Sudeste 42 Este 0 -- -- 74
2020-03-17 11:00:00 9.9 17 Sudeste 44 Este 0 -- -- 65
2020-03-17 10:00:00 8.5 21 Sudeste 40 Este 0 -- -- 68
2020-03-17 09:00:00 4 24 Sudeste 39 Este 0 -- -- 83
2020-03-17 08:00:00 2.8 15 Sudeste 36 Este 0 -- -- 85
2020-03-17 07:00:00 2.2 11 Sudeste 38 Este 0 -- -- 85
2020-03-17 06:00:00 2.4 18 Sudeste 44 Este 0 -- -- 82
2020-03-17 05:00:00 2 23 Sudeste 36 Este 0 -- -- 83
2020-03-17 04:00:00 1.7 13 Sudeste 50 Este 0 -- -- 82
2020-03-17 03:00:00 1.7 28 Sudeste 48 Este 0 -- -- 80
2020-03-17 02:00:00 1.4 40 Este 55 Este 0 -- -- 78
2020-03-17 01:00:00 2.3 39 Este 60 Este 0 -- -- 72
2020-03-17 00:00:00 1.6 31 Este 56 Este 0 -- -- 74
2020-03-16 23:00:00 1.8 15 Este 35 Nordeste 0 -- -- 72
2020-03-16 22:00:00 0.9 21 Este 41 Este 0 -- -- 75
2020-03-16 21:00:00 1.5 21 Este 52 Nordeste 0 -- -- 68
2020-03-16 20:00:00 1.9 26 Nordeste 49 Nordeste 0 -- -- 66
2020-03-16 19:00:00 2.1 28 Nordeste 54 Nordeste 0 -- -- 65
2020-03-16 18:00:00 2.9 23 Nordeste 60 Nordeste 0 -- -- 61
2020-03-16 17:00:00 3.7 28 Este 60 Este 0 -- -- 59
2020-03-16 16:00:00 3.6 35 Este 68 Nordeste 0 -- -- 60
2020-03-16 15:00:00 2.5 40 Nordeste 76 Nordeste 0 -- -- 57
2020-03-16 14:00:00 2.4 30 Nordeste 68 Nordeste 0 -- -- 61
2020-03-16 13:00:00 2 20 Nordeste 69 Nordeste 0 -- -- 63
2020-03-16 12:00:00 1.2 28 Nordeste 74 Nordeste 0 -- -- 60
2020-03-16 11:00:00 0.9 30 Nordeste 68 Nordeste 0 -- -- 57
2020-03-16 10:00:00 0.6 21 Nordeste 53 Este 0 -- -- 56
2020-03-16 09:00:00 -0.2 10 Norte 70 Nordeste 0 -- -- 66
2020-03-16 08:00:00 -0.4 15 Norte 84 Este 0 -- -- 67
2020-03-16 07:00:00 -0.7 32 Este 60 Este 0 -- -- 72
2020-03-16 06:00:00 -0.6 27 Este 56 Este 0 -- -- 70
2020-03-16 05:00:00 -1 23 Este 49 Nordeste 0 -- -- 72
2020-03-16 04:00:00 -0.8 31 Este 51 Nordeste 0 -- -- 72
2020-03-16 03:00:00 -1.8 7 Este 35 Nordeste 0 -- -- 83
2020-03-16 02:00:00 -2.4 9 Este 32 Nordeste 0 -- -- 93
2020-03-16 01:00:00 -1.5 11 Nordeste 44 Nordeste 0 -- -- 85
2020-03-16 00:00:00 -0.7 33 Este 57 Este 0 -- -- 78
2020-03-15 23:00:00 -0.1 8 Sur 21 Este 0 -- -- 79
2020-03-15 22:00:00 0.1 5 Sur 26 Este 0 -- -- 84
2020-03-15 21:00:00 1.3 9 Sur 21 Sur 0 -- -- 86
2020-03-15 20:00:00 2.4 9 Noroeste 22 Noroeste 0 -- -- 85
2020-03-15 19:00:00 7.3 8 Oeste 36 Sudoeste 0 -- -- 68
2020-03-15 18:00:00 7.3 30 Oeste 60 Oeste 0 -- -- 63
2020-03-15 17:00:00 9.9 25 Oeste 45 Oeste 0 -- -- 50
2020-03-15 16:00:00 10 27 Oeste 55 Sudoeste 0 -- -- 47
2020-03-15 15:00:00 11.6 32 Oeste 55 Oeste 0 -- -- 36
2020-03-15 14:00:00 12.7 25 Oeste 56 Sudoeste 0 -- -- 30
2020-03-15 13:00:00 11.3 32 Oeste 56 Oeste 0 -- -- 40
2020-03-15 12:00:00 11.2 21 Oeste 41 Oeste 0 -- -- 47
2020-03-15 11:00:00 9.9 19 Oeste 39 Sudoeste 0 -- -- 50
2020-03-15 10:00:00 8.6 11 Oeste 19 Oeste 0 -- -- 54
2020-03-15 09:00:00 7.5 6 Noroeste 14 Noroeste 0 -- -- 51
2020-03-15 08:00:00 4.8 3 Sudoeste 12 Oeste 0 -- -- 53
2020-03-15 07:00:00 4.5 6 Oeste 13 Sudoeste 0 -- -- 52
2020-03-15 06:00:00 4.5 8 Oeste 19 Oeste 0 -- -- 53
2020-03-15 05:00:00 4.4 11 Oeste 17 Oeste 0 -- -- 63
2020-03-15 04:00:00 4.5 10 Oeste 14 Oeste 0 -- -- 63
2020-03-15 03:00:00 4.5 11 Oeste 15 Oeste 0 -- -- 66
2020-03-15 02:00:00 5.4 14 Oeste 17 Oeste 0 -- -- 62
2020-03-15 01:00:00 5.8 10 Oeste 12 Noroeste 0 -- -- 65
2020-03-15 00:00:00 5.6 5 Noroeste 9 Noroeste 0 -- -- 66
2020-03-14 23:00:00 6.2 6 Noroeste 13 Noroeste 0 -- -- 64
2020-03-14 22:00:00 5.6 6 Noroeste 10 Norte 0 -- -- 68
2020-03-14 21:00:00 6.3 4 Norte 12 Oeste 0 -- -- 64
2020-03-14 20:00:00 6.9 8 Oeste 19 Sudoeste 0 -- -- 55
2020-03-14 19:00:00 9.4 12 Sudoeste 28 Sudoeste 0 -- -- 49
2020-03-14 18:00:00 12.4 14 Sudoeste 25 Sudoeste 0 -- -- 43
2020-03-14 17:00:00 13.8 14 Sudoeste 27 Sudoeste 0 -- -- 42
2020-03-14 16:00:00 14.4 12 Sudoeste 26 Sur 0 -- -- 42
2020-03-14 15:00:00 15.8 11 Sudoeste 25 Sudoeste 0 -- -- 38
2020-03-14 14:00:00 14.8 9 Sudoeste 22 Sudoeste 0 -- -- 39
2020-03-14 13:00:00 14.4 6 Sudoeste 14 Oeste 0 -- -- 28
2020-03-14 12:00:00 12.7 5 Oeste 10 Sudoeste 0 -- -- 29
2020-03-14 11:00:00 10.9 3 Oeste 8 Oeste 0 -- -- 29
2020-03-14 10:00:00 9.2 2 Oeste 9 Noroeste 0 -- -- 29
2020-03-14 09:00:00 5.6 8 Noroeste 10 Oeste 0 -- -- 34
2020-03-14 08:00:00 3.4 6 Oeste 9 Oeste 0 -- -- 37
2020-03-14 07:00:00 3.2 6 Oeste 12 Oeste 0 -- -- 37
2020-03-14 06:00:00 3.6 10 Noroeste 13 Noroeste 0 -- -- 34
2020-03-14 05:00:00 3.1 9 Oeste 12 Noroeste 0 -- -- 38
2020-03-14 04:00:00 3.5 10 Noroeste 12 Noroeste 0 -- -- 43
2020-03-14 03:00:00 3 0 Calma 6 Oeste 0 -- -- 49
2020-03-14 02:00:00 2.5 5 Noroeste 16 Noroeste 0 -- -- 57
2020-03-14 01:00:00 3.2 10 Noroeste 17 Oeste 0 -- -- 70
2020-03-14 00:00:00 3.4 0 Calma 4 Nordeste 0 -- -- 76
2020-03-13 23:00:00 3.2 0 Calma 7 Noroeste 0 -- -- 82
2020-03-13 22:00:00 3.5 7 Noroeste 22 Noroeste 0 -- -- 83
2020-03-13 21:00:00 3.9 13 Noroeste 20 Noroeste 0 -- -- 85
2020-03-13 20:00:00 4.9 16 Noroeste 21 Noroeste 0 -- -- 81
2020-03-13 19:00:00 8 15 Noroeste 22 Noroeste 0 -- -- 67
2020-03-13 18:00:00 12.2 8 Oeste 27 Oeste 0 -- -- 55
2020-03-13 17:00:00 12.5 3 Norte 14 Este 0 -- -- 57
2020-03-13 16:00:00 9.4 10 Este 21 Este 0 -- -- 64
2020-03-13 15:00:00 9.2 11 Sudeste 23 Sudeste 0 -- -- 63
2020-03-13 14:00:00 10.6 10 Este 22 Este 0 -- -- 56
2020-03-13 13:00:00 8.8 10 Este 19 Este 0 -- -- 63
2020-03-13 12:00:00 7.3 10 Este 24 Este 0 -- -- 69
2020-03-13 11:00:00 5.8 16 Sudeste 29 Este 0 -- -- 73
2020-03-13 10:00:00 3.8 17 Este 29 Este 0 -- -- 80
2020-03-13 09:00:00 1.7 17 Este 24 Este 0 -- -- 90
2020-03-13 08:00:00 0.5 15 Sudeste 27 Este 0 -- -- 95
2020-03-13 07:00:00 0.5 14 Sudeste 29 Este 0 -- -- 95
2020-03-13 06:00:00 0.4 7 Este 13 Este 0 -- -- 97
2020-03-13 05:00:00 0.7 5 Este 13 Este 0 -- -- 97
2020-03-13 04:00:00 0.9 5 Nordeste 14 Este 0 -- -- 97
2020-03-13 03:00:00 1.4 10 Este 16 Este 0 -- -- 96
2020-03-13 02:00:00 1.8 5 Nordeste 14 Nordeste 0 -- -- 95
2020-03-13 01:00:00 2.6 6 Este 11 Este 0 -- -- 94
2020-03-13 00:00:00 2.8 6 Sudeste 11 Sudeste 0 -- -- 93
2020-03-12 23:00:00 3.7 9 Este 12 Este 0 -- -- 93
2020-03-12 22:00:00 4 7 Este 12 Este 0 -- -- 92
2020-03-12 21:00:00 4.7 5 Norte 12 Norte 0 -- -- 93
2020-03-12 20:00:00 5.7 8 Este 23 Este 0 -- -- 90
2020-03-12 19:00:00 7.1 6 Este 18 Este 0 -- -- 87
2020-03-12 18:00:00 7.8 16 Este 29 Este 0 -- -- 84
2020-03-12 17:00:00 9.8 21 Este 28 Este 0 -- -- 78
2020-03-12 16:00:00 16.2 12 Oeste 30 Oeste 0 -- -- 56
2020-03-12 15:00:00 17.3 10 Oeste 27 Oeste 0 -- -- 51
2020-03-12 14:00:00 16.4 15 Oeste 29 Oeste 0 -- -- 50
2020-03-12 13:00:00 -- -- -- -- -- -- -- -- --
2020-03-12 12:00:00 -- -- -- -- -- -- -- -- --
2020-03-12 11:00:00 -- -- -- -- -- -- -- -- --
2020-03-12 10:00:00 -- -- -- -- -- -- -- -- --
2020-03-12 09:00:00 -- -- -- -- -- -- -- -- --
2020-03-12 08:00:00 -- -- -- -- -- -- -- -- --
2020-03-12 07:00:00 -- -- -- -- -- -- -- -- --
2020-03-12 06:00:00 -- -- -- -- -- -- -- -- --
2020-03-12 05:00:00 -- -- -- -- -- -- -- -- --
2020-03-12 04:00:00 -- -- -- -- -- -- -- -- --
2020-03-12 03:00:00 -- -- -- -- -- -- -- -- --
2020-03-12 02:00:00 -- -- -- -- -- -- -- -- --
2020-03-12 01:00:00 -- -- -- -- -- -- -- -- --
2020-03-12 00:00:00 -- -- -- -- -- -- -- -- --
2020-03-11 23:00:00 -- -- -- -- -- -- -- -- --
2020-03-11 22:00:00 -- -- -- -- -- -- -- -- --
2020-03-11 21:00:00 -- -- -- -- -- -- -- -- --
2020-03-11 20:00:00 -- -- -- -- -- -- -- -- --
2020-03-11 19:00:00 -- -- -- -- -- -- -- -- --
2020-03-11 18:00:00 -- -- -- -- -- -- -- -- --
2020-03-11 17:00:00 17.2 26 Oeste 47 Oeste 0 -- -- 38
2020-03-11 16:00:00 17.4 31 Oeste 49 Oeste 0 -- -- 36
2020-03-11 15:00:00 17.5 28 Oeste 47 Oeste 0 -- -- 34
2020-03-11 14:00:00 16.7 29 Oeste 43 Oeste 0 -- -- 30
2020-03-11 13:00:00 16 23 Oeste 36 Oeste 0 -- -- 36
2020-03-11 12:00:00 15.6 19 Oeste 32 Oeste 0 -- -- 37
2020-03-11 11:00:00 14.7 5 Noroeste 11 Noroeste 0 -- -- 35
2020-03-11 10:00:00 14.9 0 Calma 4 Sudoeste 0 -- -- 33
2020-03-11 09:00:00 11 3 Este 4 Este 0 -- -- 26
2020-03-11 08:00:00 9.1 0 Calma 5 Noroeste 0 -- -- 29
2020-03-11 07:00:00 8.8 4 Noroeste 6 Noroeste 0 -- -- 33
2020-03-11 06:00:00 9 0 Calma 8 Noroeste 0 -- -- 27
2020-03-11 05:00:00 10 8 Noroeste 10 Noroeste 0 -- -- 25
2020-03-11 04:00:00 10.6 10 Noroeste 15 Noroeste 0 -- -- 24
2020-03-11 03:00:00 10.3 12 Noroeste 15 Noroeste 0 -- -- 24
2020-03-11 02:00:00 10.3 10 Oeste 14 Noroeste 0 -- -- 26
2020-03-11 01:00:00 10.9 10 Noroeste 17 Oeste 0 -- -- 29
2020-03-11 00:00:00 10.6 12 Oeste 13 Noroeste 0 -- -- 35
2020-03-10 23:00:00 10.5 10 Noroeste 15 Oeste 0 -- -- 37
2020-03-10 22:00:00 10.1 14 Oeste 20 Oeste 0 -- -- 44
2020-03-10 21:00:00 10.7 15 Oeste 24 Noroeste 0 -- -- 45
2020-03-10 20:00:00 11.1 14 Oeste 23 Oeste 0 -- -- 40
2020-03-10 19:00:00 13.3 13 Oeste 31 Oeste 0 -- -- 32
2020-03-10 18:00:00 15.5 21 Oeste 36 Oeste 0 -- -- 29
2020-03-10 17:00:00 17.1 19 Oeste 32 Oeste 0 -- -- 36
2020-03-10 16:00:00 16 19 Oeste 32 Oeste 0 -- -- 37
2020-03-10 15:00:00 17.1 19 Oeste 32 Oeste 0 -- -- 40
2020-03-10 14:00:00 16.2 19 Oeste 31 Oeste 0 -- -- 44
2020-03-10 13:00:00 14.8 18 Oeste 30 Noroeste 0 -- -- 48
2020-03-10 12:00:00 13.4 18 Oeste 27 Oeste 0 -- -- 52
2020-03-10 11:00:00 12.7 14 Oeste 21 Noroeste 0 -- -- 54
2020-03-10 10:00:00 9.5 19 Oeste 22 Oeste 0 -- -- 60
2020-03-10 09:00:00 8.6 15 Oeste 20 Oeste 0 -- -- 58
2020-03-10 08:00:00 7.1 13 Noroeste 27 Noroeste 0 -- -- 58
2020-03-10 07:00:00 7.7 17 Noroeste 25 Noroeste 0 -- -- 59
2020-03-10 06:00:00 8.3 18 Noroeste 21 Noroeste 0 -- -- 57
2020-03-10 05:00:00 7.4 18 Noroeste 24 Oeste 0 -- -- 51
2020-03-10 04:00:00 7.5 15 Oeste 22 Noroeste 0 -- -- 50
2020-03-10 03:00:00 7.1 7 Oeste 18 Noroeste 0 -- -- 41
2020-03-10 02:00:00 6.2 14 Oeste 24 Oeste 0 -- -- 37
2020-03-10 01:00:00 4.9 15 Oeste 24 Noroeste 0 -- -- 46
2020-03-10 00:00:00 4.3 14 Noroeste 20 Noroeste 0 -- -- 46
2020-03-09 23:00:00 3.6 8 Noroeste 15 Noroeste 0 -- -- 50
2020-03-09 22:00:00 4.6 13 Noroeste 22 Noroeste 0 -- -- 50
2020-03-09 21:00:00 3.7 12 Oeste 19 Oeste 0 -- -- 55
2020-03-09 20:00:00 4.8 8 Oeste 22 Oeste 0 -- -- 50
2020-03-09 19:00:00 5.7 13 Oeste 27 Oeste 0 -- -- 52
2020-03-09 18:00:00 8 14 Oeste 34 Oeste 0 -- -- 48
2020-03-09 17:00:00 7.9 20 Noroeste 33 Noroeste 0 -- -- 46
2020-03-09 16:00:00 6.4 22 Oeste 32 Oeste 0 -- -- 47
2020-03-09 15:00:00 5.2 21 Oeste 32 Oeste 0 -- -- 57
2020-03-09 14:00:00 6 21 Oeste 43 Oeste 0 -- -- 53
2020-03-09 13:00:00 5.3 23 Oeste 33 Oeste 0 -- -- 57
2020-03-09 12:00:00 7.5 7 Oeste 18 Oeste 0 -- -- 50
2020-03-09 11:00:00 4.1 8 Oeste 16 Sudoeste 0 -- -- 59
2020-03-09 10:00:00 3 9 Oeste 16 Oeste 0 -- -- 65
2020-03-09 09:00:00 0.5 9 Oeste 21 Oeste 0 -- -- 77
2020-03-09 08:00:00 -1.6 9 Oeste 13 Oeste 0 -- -- 90
2020-03-09 07:00:00 -1.3 8 Este 16 Sudeste 0 -- -- 97
2020-03-09 06:00:00 -1.1 5 Este 22 Oeste 0 -- -- 94
2020-03-09 05:00:00 -0.1 15 Oeste 32 Oeste 0 -- -- 79
2020-03-09 04:00:00 0.7 13 Oeste 25 Noroeste 0 -- -- 75
2020-03-09 03:00:00 0.5 13 Noroeste 27 Noroeste 0 -- -- 77
2020-03-09 02:00:00 0.7 9 Oeste 26 Oeste 0 -- -- 80
2020-03-09 01:00:00 1.4 19 Noroeste 43 Noroeste 0 -- -- 77
2020-03-09 00:00:00 1.7 14 Oeste 29 Noroeste 0 -- -- 89
2020-03-08 23:00:00 2.4 21 Noroeste 33 Noroeste 0 -- -- 89
2020-03-08 22:00:00 2.8 17 Noroeste 26 Noroeste 0 -- -- 86
2020-03-08 21:00:00 4.3 19 Noroeste 34 Noroeste 0 -- -- 74
2020-03-08 20:00:00 5.1 16 Oeste 25 Oeste 0 -- -- 81
2020-03-08 19:00:00 6.9 14 Oeste 40 Oeste 0 -- -- 71
2020-03-08 18:00:00 8.8 23 Oeste 37 Oeste 0 -- -- 68
2020-03-08 17:00:00 8.1 15 Oeste 34 Oeste 0 -- -- 71
2020-03-08 16:00:00 8.9 22 Oeste 36 Sudoeste 0 -- -- 66
2020-03-08 15:00:00 10.3 18 Oeste 34 Oeste 0 -- -- 62
2020-03-08 14:00:00 10.6 21 Oeste 32 Oeste 0 -- -- 58
2020-03-08 13:00:00 7.9 15 Oeste 25 Noroeste 0 -- -- 63
2020-03-08 12:00:00 7.3 17 Oeste 24 Oeste 0 -- -- 62
2020-03-08 11:00:00 6.9 13 Oeste 21 Oeste 0 -- -- 54
2020-03-08 10:00:00 4.7 8 Oeste 18 Noroeste 0 -- -- 51
2020-03-08 09:00:00 3.2 12 Oeste 21 Oeste 0 -- -- 66
2020-03-08 08:00:00 3.3 11 Oeste 18 Oeste 0 -- -- 65
2020-03-08 07:00:00 2.5 13 Oeste 22 Oeste 0 -- -- 74
2020-03-08 06:00:00 2.6 14 Oeste 20 Oeste 0 -- -- 70
2020-03-08 05:00:00 3 15 Noroeste 22 Noroeste 0 -- -- 66
2020-03-08 04:00:00 3 19 Noroeste 23 Noroeste 0 -- -- 69
2020-03-08 03:00:00 2.3 18 Oeste 22 Noroeste 0 -- -- 84
2020-03-08 02:00:00 1.8 13 Oeste 20 Noroeste 0 -- -- 90
2020-03-08 01:00:00 1.7 16 Oeste 21 Noroeste 0 -- -- 91
2020-03-08 00:00:00 2.3 18 Oeste 25 Oeste 0 -- -- 88
2020-03-07 23:00:00 2.4 18 Oeste 25 Oeste 0 -- -- 83
2020-03-07 22:00:00 2.3 18 Oeste 24 Noroeste 0 -- -- 83
2020-03-07 21:00:00 3.2 12 Oeste 26 Noroeste 0 -- -- 78
2020-03-07 20:00:00 4.3 20 Oeste 28 Oeste 0 -- -- 72
2020-03-07 19:00:00 5.9 15 Oeste 23 Oeste 0 -- -- 67
2020-03-07 18:00:00 8.7 17 Oeste 28 Oeste 0 -- -- 60
2020-03-07 17:00:00 9.8 17 Oeste 32 Oeste 0 -- -- 52
2020-03-07 16:00:00 9.5 18 Oeste 28 Oeste 0 -- -- 56
2020-03-07 15:00:00 9.2 14 Oeste 24 Oeste 0 -- -- 61
2020-03-07 14:00:00 8.7 10 Oeste 19 Sudoeste 0 -- -- 59
2020-03-07 13:00:00 7.5 10 Oeste 21 Sudoeste 0 -- -- 64
2020-03-07 12:00:00 6.2 14 Oeste 22 Oeste 0 -- -- 66
2020-03-07 11:00:00 4.7 6 Norte 19 Noroeste 0 -- -- 70
2020-03-07 10:00:00 4.2 8 Oeste 16 Oeste 0 -- -- 82
2020-03-07 09:00:00 0.4 10 Oeste 22 Oeste 0 -- -- 97
2020-03-07 08:00:00 -0.3 15 Oeste 26 Oeste 0 -- -- 97
2020-03-07 07:00:00 -0.5 13 Oeste 18 Oeste 0 -- -- 97
2020-03-07 06:00:00 -0.7 5 Sudoeste 22 Noroeste 0 -- -- 98
2020-03-07 05:00:00 -0.5 15 Noroeste 28 Oeste 0 -- -- 98
2020-03-07 04:00:00 -0.2 18 Oeste 36 Noroeste 0 -- -- 95
2020-03-07 03:00:00 -0.3 13 Oeste 32 Oeste 0 -- -- 96
2020-03-07 02:00:00 -0.2 18 Oeste 38 Norte 0 -- -- 91
2020-03-07 01:00:00 -0.2 19 Noroeste 47 Norte 0 -- -- 85
2020-03-07 00:00:00 0.7 23 Norte 50 Noroeste 0 -- -- 73
2020-03-06 23:00:00 -0.8 23 Noroeste 53 Norte 0 -- -- 79
2020-03-06 22:00:00 -0.6 23 Noroeste 57 Noroeste 0 -- -- 71
2020-03-06 21:00:00 -1.4 23 Norte 62 Norte 0 -- -- 74
2020-03-06 20:00:00 -1.7 24 Norte 63 Norte 0 -- -- 75
2020-03-06 19:00:00 -1.4 27 Norte 67 Norte 0 -- -- 72
2020-03-06 18:00:00 -0.4 15 Norte 49 Norte 0 -- -- 77
2020-03-06 17:00:00 -0.3 26 Norte 53 Nordeste 0 -- -- 79
2020-03-06 16:00:00 0.4 22 Norte 53 Norte 0 -- -- 74
2020-03-06 15:00:00 2.2 15 Norte 57 Norte 0 -- -- 69
2020-03-06 14:00:00 0.2 31 Norte 59 Norte 0 -- -- 81
2020-03-06 13:00:00 -2.3 20 Noroeste 50 Noroeste 0 -- -- 93
2020-03-06 12:00:00 -1.2 15 Norte 46 Norte 0 -- -- 92
2020-03-06 11:00:00 -3.1 12 Norte 64 Norte 0 -- -- 95
2020-03-06 10:00:00 -3.5 23 Norte 63 Norte 0 -- -- 97
2020-03-06 09:00:00 -3.3 20 Noroeste 34 Noroeste 0 -- -- 97
2020-03-06 08:00:00 -3.2 14 Oeste 43 Norte 0 -- -- 97
2020-03-06 07:00:00 -3.3 28 Noroeste 50 Noroeste 0 -- -- 97
2020-03-06 06:00:00 -3.2 31 Noroeste 52 Noroeste 0 -- -- 97
2020-03-06 05:00:00 -2.2 29 Noroeste 50 Noroeste 0 -- -- 98
2020-03-06 04:00:00 -1.8 20 Oeste 35 Oeste 0 -- -- 98
2020-03-06 03:00:00 -1.8 26 Oeste 39 Oeste 0 -- -- 98
2020-03-06 02:00:00 -2 29 Oeste 39 Oeste 0 -- -- 97
2020-03-06 01:00:00 -2.2 14 Oeste 28 Oeste 0 -- -- 97
2020-03-06 00:00:00 -2.2 19 Oeste 26 Oeste 0 -- -- 98
2020-03-05 23:00:00 -1.8 11 Oeste 31 Noroeste 0 -- -- 98
2020-03-05 22:00:00 -1.6 16 Noroeste 38 Noroeste 0 -- -- 98
2020-03-05 21:00:00 -1.4 19 Oeste 27 Oeste 0 -- -- 98
2020-03-05 20:00:00 -0.7 14 Oeste 39 Noroeste 0 -- -- 96
2020-03-05 19:00:00 0 13 Noroeste 35 Oeste 0 -- -- 93
2020-03-05 18:00:00 1.4 14 Noroeste 38 Oeste 0 -- -- 82
2020-03-05 17:00:00 2.9 18 Noroeste 54 Norte 0 -- -- 76
2020-03-05 16:00:00 3.1 33 Noroeste 70 Noroeste 0 -- -- 85
2020-03-05 15:00:00 4.1 33 Noroeste 58 Noroeste 0 -- -- 77
2020-03-05 14:00:00 3.2 28 Oeste 55 Noroeste 0 -- -- 92
2020-03-05 13:00:00 2.3 38 Noroeste 68 Oeste 0 -- -- 87
2020-03-05 12:00:00 5.5 39 Oeste 62 Oeste 0 -- -- 71
2020-03-05 11:00:00 4.9 36 Oeste 60 Oeste 0 -- -- 76
2020-03-05 10:00:00 3.9 35 Oeste 62 Oeste 0 -- -- 93
2020-03-05 09:00:00 3.6 46 Oeste 93 Oeste 0 -- -- 99
2020-03-05 08:00:00 4.9 55 Oeste 89 Oeste 0 -- -- 100
2020-03-05 07:00:00 4.9 54 Oeste 82 Oeste 0 -- -- 99
2020-03-05 06:00:00 5.1 53 Oeste 99 Oeste 0 -- -- 99
2020-03-05 05:00:00 5.2 51 Oeste 85 Oeste 0 -- -- 99
2020-03-05 04:00:00 5.4 50 Oeste 77 Oeste 0 -- -- 99
2020-03-05 03:00:00 5.8 38 Oeste 60 Oeste 0 -- -- 99
2020-03-05 02:00:00 5.7 32 Oeste 48 Oeste 0.2 -- -- 99
2020-03-05 01:00:00 5.4 24 Oeste 58 Oeste 0 -- -- 98
2020-03-05 00:00:00 5.5 30 Oeste 62 Oeste 0 -- -- 98
2020-03-04 23:00:00 5.5 29 Oeste 56 Oeste 0 -- -- 97
2020-03-04 22:00:00 5.4 42 Oeste 58 Oeste 0 -- -- 97
2020-03-04 21:00:00 6.5 35 Oeste 50 Oeste 0 -- -- 82
2020-03-04 20:00:00 6.6 24 Oeste 47 Oeste 0 -- -- 76
2020-03-04 19:00:00 6.9 29 Oeste 49 Oeste 0 -- -- 75
2020-03-04 18:00:00 8.1 26 Oeste 53 Oeste 0 -- -- 77
2020-03-04 17:00:00 8.9 31 Oeste 49 Oeste 0 -- -- 81
2020-03-04 16:00:00 8.2 19 Oeste 43 Sudoeste 0 -- -- 83
2020-03-04 15:00:00 8 21 Oeste 40 Oeste 0 -- -- 83
2020-03-04 14:00:00 7.7 16 Oeste 30 Oeste 0 -- -- 83
2020-03-04 13:00:00 7.7 16 Oeste 26 Oeste 1 -- -- 94
2020-03-04 12:00:00 6.9 15 Oeste 26 Oeste 0 -- -- 97
2020-03-04 11:00:00 5.4 8 Oeste 22 Noroeste 0 -- -- 99
2020-03-04 10:00:00 5 11 Oeste 26 Oeste 0 -- -- 99
2020-03-04 09:00:00 4.6 20 Oeste 32 Oeste 0 -- -- 99
2020-03-04 08:00:00 4.6 21 Oeste 32 Oeste 0 -- -- 99
2020-03-04 07:00:00 4.5 8 Oeste 23 Oeste 0 -- -- 99
2020-03-04 06:00:00 4.2 8 Oeste 19 Oeste 0 -- -- 99
2020-03-04 05:00:00 3.9 12 Oeste 30 Oeste 0 -- -- 99
2020-03-04 04:00:00 3.4 19 Oeste 27 Oeste 0.2 -- -- 98
2020-03-04 03:00:00 3.4 16 Oeste 22 Oeste 0 -- -- 98
2020-03-04 02:00:00 3.7 17 Oeste 27 Oeste 0 -- -- 97
2020-03-04 01:00:00 3.8 20 Oeste 33 Noroeste 0 -- -- 82
2020-03-04 00:00:00 4.4 27 Noroeste 48 Noroeste 0 -- -- 65
2020-03-03 23:00:00 5.9 26 Noroeste 48 Noroeste 0 -- -- 61
2020-03-03 22:00:00 5 20 Noroeste 48 Noroeste 0 -- -- 51
2020-03-03 21:00:00 5.5 25 Noroeste 44 Noroeste 0 -- -- 51
2020-03-03 20:00:00 5.4 32 Noroeste 47 Noroeste 0 -- -- 57
2020-03-03 19:00:00 5.5 35 Noroeste 55 Noroeste 0 -- -- 65
2020-03-03 18:00:00 6.9 35 Noroeste 58 Noroeste 0 -- -- 51
2020-03-03 17:00:00 8.2 38 Noroeste 71 Noroeste 0 -- -- 45
2020-03-03 16:00:00 9 37 Noroeste 71 Noroeste 0 -- -- 48
2020-03-03 15:00:00 9.8 41 Noroeste 77 Noroeste 0.2 -- -- 43
2020-03-03 14:00:00 10 27 Oeste 51 Norte 0 -- -- 61
2020-03-03 13:00:00 -- -- -- -- -- -- -- -- --
2020-03-03 12:00:00 -- -- -- -- -- -- -- -- --
2020-03-03 11:00:00 -- -- -- -- -- -- -- -- --
2020-03-03 10:00:00 -- -- -- -- -- -- -- -- --
2020-03-03 09:00:00 -- -- -- -- -- -- -- -- --
2020-03-03 08:00:00 -- -- -- -- -- -- -- -- --
2020-03-03 07:00:00 -- -- -- -- -- -- -- -- --
2020-03-03 06:00:00 -- -- -- -- -- -- -- -- --
2020-03-03 05:00:00 -- -- -- -- -- -- -- -- --
2020-03-03 04:00:00 -- -- -- -- -- -- -- -- --
2020-03-03 03:00:00 -- -- -- -- -- -- -- -- --
2020-03-03 02:00:00 -- -- -- -- -- -- -- -- --
2020-03-03 01:00:00 -- -- -- -- -- -- -- -- --
2020-03-03 00:00:00 -- -- -- -- -- -- -- -- --
2020-03-02 23:00:00 -- -- -- -- -- -- -- -- --
2020-03-02 22:00:00 -- -- -- -- -- -- -- -- --
2020-03-02 21:00:00 -- -- -- -- -- -- -- -- --
2020-03-02 20:00:00 -- -- -- -- -- -- -- -- --
2020-03-02 19:00:00 -- -- -- -- -- -- -- -- --
2020-03-02 18:00:00 -- -- -- -- -- -- -- -- --
2020-03-02 17:00:00 -- -- -- -- -- -- -- -- --
2020-03-02 16:00:00 -- -- -- -- -- -- -- -- --
2020-03-02 15:00:00 -- -- -- -- -- -- -- -- --
2020-03-02 14:00:00 -- -- -- -- -- -- -- -- --
2020-03-02 13:00:00 -- -- -- -- -- -- -- -- --
2020-03-02 12:00:00 -- -- -- -- -- -- -- -- --
2020-03-02 11:00:00 -- -- -- -- -- -- -- -- --
2020-03-02 10:00:00 -- -- -- -- -- -- -- -- --
2020-03-02 09:00:00 -2.3 30 Noroeste 54 Noroeste 0 -- -- 97
2020-03-02 08:00:00 -2.6 35 Noroeste 71 Noroeste 0 -- -- 98
2020-03-02 07:00:00 -1.4 28 Noroeste 71 Noroeste 0 -- -- 98
2020-03-02 06:00:00 -0.7 27 Noroeste 53 Noroeste 0 -- -- 98
2020-03-02 05:00:00 -0.1 26 Noroeste 60 Oeste 0.4 -- -- 98
2020-03-02 04:00:00 0.2 41 Noroeste 160 Sudoeste 2.8 -- -- 98
2020-03-02 03:00:00 5 99 Oeste 153 Oeste 2 -- -- 96
2020-03-02 02:00:00 4.6 59 Oeste 113 Oeste 3.4 -- -- 97
2020-03-02 01:00:00 3.5 59 Oeste 98 Oeste 3.4 -- -- 97
2020-03-02 00:00:00 2.3 45 Oeste 76 Oeste 3.2 -- -- 98
2020-03-01 23:00:00 1 46 Oeste 75 Oeste 2.8 -- -- 97
2020-03-01 22:00:00 1.6 42 Oeste 73 Oeste 2 -- -- 96
2020-03-01 21:00:00 2.2 32 Oeste 69 Oeste 0.6 -- -- 93
2020-03-01 20:00:00 2.8 41 Oeste 62 Oeste 0.2 -- -- 89
2020-03-01 19:00:00 4 27 Oeste 54 Oeste 0 -- -- 72
2020-03-01 18:00:00 4.5 33 Oeste 70 Oeste 0 -- -- 61
2020-03-01 17:00:00 5.1 44 Oeste 75 Oeste 0 -- -- 64
2020-03-01 16:00:00 5.6 42 Oeste 68 Oeste 0 -- -- 65
2020-03-01 15:00:00 7.1 51 Oeste 81 Oeste 0 -- -- 56
2020-03-01 14:00:00 6.8 40 Oeste 66 Oeste 0 -- -- 66
2020-03-01 13:00:00 5.3 40 Oeste 57 Oeste 0 -- -- 72
2020-03-01 12:00:00 4.1 40 Oeste 63 Oeste 1.4 -- -- 95
2020-03-01 11:00:00 2.3 40 Oeste 68 Oeste 2.6 -- -- 98
2020-03-01 10:00:00 1.2 35 Oeste 57 Oeste 0.2 -- -- 98
2020-03-01 09:00:00 -0.1 22 Oeste 34 Oeste 0 -- -- 99
2020-03-01 08:00:00 -0.7 16 Oeste 42 Oeste 0 -- -- 99
2020-03-01 07:00:00 -0.1 23 Oeste 49 Oeste 0 -- -- 99
2020-03-01 06:00:00 -0.1 22 Oeste 36 Oeste 0 -- -- 99
2020-03-01 05:00:00 -0.1 17 Oeste 42 Oeste 0 -- -- 98
2020-03-01 04:00:00 -0.2 30 Oeste 61 Oeste 0 -- -- 98
2020-03-01 03:00:00 -0.1 39 Oeste 59 Oeste 0 -- -- 98
2020-03-01 02:00:00 -0.2 33 Oeste 72 Sudoeste 0 -- -- 97
2020-03-01 01:00:00 -0.2 32 Oeste 52 Oeste 0 -- -- 96
2020-03-01 00:00:00 0.3 31 Oeste 63 Oeste 0 -- -- 92
2020-02-29 23:00:00 0.9 38 Oeste 68 Oeste 0 -- -- 81
2020-02-29 22:00:00 1.2 47 Oeste 77 Oeste 0 -- -- 75
2020-02-29 21:00:00 1.2 44 Oeste 70 Oeste 0 -- -- 73
2020-02-29 20:00:00 1.1 37 Oeste 53 Noroeste 0 -- -- 76
2020-02-29 19:00:00 2.2 29 Oeste 63 Oeste 0 -- -- 76
2020-02-29 18:00:00 2.9 34 Oeste 58 Oeste 0 -- -- 75
2020-02-29 17:00:00 3.8 28 Oeste 46 Oeste 0 -- -- 69
2020-02-29 16:00:00 5 25 Oeste 46 Oeste 0 -- -- 66
2020-02-29 15:00:00 5.7 27 Oeste 61 Oeste 0 -- -- 57
2020-02-29 14:00:00 5.5 41 Oeste 84 Oeste 0 -- -- 51
2020-02-29 13:00:00 5.6 52 Oeste 86 Oeste 0.2 -- -- 65
2020-02-29 12:00:00 4.8 56 Oeste 91 Oeste 0 -- -- 96
2020-02-29 11:00:00 3.5 48 Oeste 77 Oeste 0.4 -- -- 98
2020-02-29 10:00:00 2.8 30 Oeste 57 Oeste 1.2 -- -- 99
2020-02-29 09:00:00 1.9 35 Oeste 57 Oeste 0.8 -- -- 98
2020-02-29 08:00:00 1.3 37 Oeste 74 Oeste 0.8 -- -- 98
2020-02-29 07:00:00 0.7 41 Oeste 69 Oeste 0.6 -- -- 97
2020-02-29 06:00:00 0.9 43 Oeste 68 Oeste 0 -- -- 94
2020-02-29 05:00:00 1.4 40 Oeste 73 Oeste 0 -- -- 84
2020-02-29 04:00:00 2.7 43 Oeste 89 Oeste 0 -- -- 78
2020-02-29 03:00:00 3 54 Oeste 82 Oeste 0 -- -- 74
2020-02-29 02:00:00 4 46 Oeste 71 Sudoeste 0 -- -- 64
2020-02-29 01:00:00 3.4 32 Oeste 59 Noroeste 0 -- -- 69
2020-02-29 00:00:00 4.6 34 Oeste 65 Sudoeste 0 -- -- 63